createdAt,value
2022-08-26T00:00:15.071Z,68.32
2022-08-26T00:03:02.889Z,68.46
2022-08-26T00:05:30.880Z,68.53
2022-08-26T00:07:58.870Z,68.46
2022-08-26T00:10:26.974Z,70.06
2022-08-26T00:12:55.090Z,69.28
2022-08-26T00:15:24.341Z,70.03
2022-08-26T00:17:53.429Z,69.37
2022-08-26T00:20:25.613Z,69.51
2022-08-26T00:22:55.689Z,69.82
2022-08-26T00:25:24.787Z,70.42
2022-08-26T00:27:53.301Z,70.33
2022-08-26T00:30:26.808Z,70.89
2022-08-26T00:32:56.389Z,69.94
2022-08-26T00:35:26.244Z,70.50
2022-08-26T00:37:57.254Z,70.89
2022-08-26T00:40:35.597Z,71.49
2022-08-26T00:43:06.975Z,70.60
2022-08-26T00:46:02.296Z,70.50
2022-08-26T00:48:36.008Z,69.86
2022-08-26T00:51:11.660Z,70.79
2022-08-26T00:53:45.789Z,71.45
2022-08-26T00:56:38.321Z,71.11
2022-08-26T00:59:09.034Z,71.24
2022-08-26T01:01:38.191Z,71.22
2022-08-26T01:04:07.008Z,70.90
2022-08-26T01:06:34.989Z,70.72
2022-08-26T01:09:03.564Z,70.63
2022-08-26T01:11:32.896Z,70.90
2022-08-26T01:14:05.131Z,71.21
2022-08-26T01:16:36.466Z,71.22
2022-08-26T01:19:18.920Z,71.53
2022-08-26T01:22:14.193Z,71.53
2022-08-26T01:24:42.862Z,71.88
2022-08-26T01:27:15.665Z,71.90
2022-08-26T01:29:49.370Z,72.14
2022-08-26T01:32:23.247Z,72.27
2022-08-26T01:34:52.966Z,72.41
2022-08-26T01:37:27.798Z,72.28
2022-08-26T01:39:56.858Z,72.65
2022-08-26T01:42:27.581Z,73.03
2022-08-26T01:45:03.741Z,73.30
2022-08-26T01:47:35.725Z,73.49
2022-08-26T01:50:09.605Z,73.94
2022-08-26T01:52:41.865Z,73.71
2022-08-26T01:55:15.747Z,74.09
2022-08-26T01:58:05.560Z,73.81
2022-08-26T02:00:35.677Z,73.95
2022-08-26T02:03:19.167Z,75.84
2022-08-26T02:06:09.277Z,75.49
2022-08-26T02:08:45.003Z,75.72
2022-08-26T02:11:14.448Z,74.46
2022-08-26T02:13:52.426Z,73.66
2022-08-26T02:16:27.329Z,74.12
2022-08-26T02:18:58.407Z,74.47
2022-08-26T02:21:26.726Z,73.97
2022-08-26T02:23:56.392Z,73.78
2022-08-26T02:26:28.389Z,73.44
2022-08-26T02:29:04.133Z,73.25
2022-08-26T02:31:32.461Z,73.35
2022-08-26T02:34:15.699Z,73.50
2022-08-26T02:36:44.201Z,73.62
2022-08-26T02:39:15.019Z,73.93
2022-08-26T02:41:45.750Z,74.21
2022-08-26T02:44:14.054Z,73.96
2022-08-26T02:46:44.514Z,74.17
2022-08-26T02:49:16.988Z,73.94
2022-08-26T02:51:46.843Z,73.94
2022-08-26T02:54:15.511Z,74.05
2022-08-26T02:56:44.013Z,74.49
2022-08-26T02:59:15.536Z,74.44
2022-08-26T03:01:45.445Z,74.86
2022-08-26T03:04:13.934Z,74.75
2022-08-26T03:06:43.472Z,75.55
2022-08-26T03:09:20.784Z,74.88
2022-08-26T03:11:48.697Z,74.95
2022-08-26T03:14:17.258Z,75.46
2022-08-26T03:16:48.441Z,75.44
2022-08-26T03:19:17.679Z,76.00
2022-08-26T03:21:47.337Z,75.53
2022-08-26T03:24:17.762Z,76.17
2022-08-26T03:26:52.641Z,76.44
2022-08-26T03:29:41.424Z,76.09
2022-08-26T03:32:09.684Z,76.15
2022-08-26T03:34:38.858Z,76.93
2022-08-26T03:37:07.039Z,76.11
2022-08-26T03:39:35.596Z,76.19
2022-08-26T03:42:03.986Z,76.39
2022-08-26T03:44:42.094Z,76.88
2022-08-26T03:47:10.659Z,77.99
2022-08-26T03:49:39.060Z,77.00
2022-08-26T03:52:07.457Z,77.12
2022-08-26T03:54:35.926Z,77.09
2022-08-26T03:57:04.329Z,76.62
2022-08-26T03:59:33.371Z,77.67
2022-08-26T04:02:01.680Z,78.87
2022-08-26T04:04:30.746Z,78.32
2022-08-26T04:06:59.927Z,77.84
2022-08-26T04:09:28.174Z,77.03
2022-08-26T04:11:58.873Z,76.83
2022-08-26T04:14:28.542Z,76.77
2022-08-26T04:16:57.075Z,76.94
2022-08-26T04:19:27.446Z,77.52
2022-08-26T04:21:55.700Z,77.58
2022-08-26T04:24:26.886Z,77.93
2022-08-26T04:26:56.821Z,78.67
2022-08-26T04:29:27.366Z,78.49
2022-08-26T04:31:56.647Z,77.21
2022-08-26T04:34:28.750Z,76.81
2022-08-26T04:36:58.933Z,77.60
2022-08-26T04:39:28.525Z,76.46
2022-08-26T04:41:57.905Z,77.59
2022-08-26T04:44:29.593Z,76.04
2022-08-26T04:46:58.973Z,76.50
2022-08-26T04:49:28.006Z,77.75
2022-08-26T04:52:05.508Z,77.01
2022-08-26T04:55:00.995Z,77.89
2022-08-26T04:57:29.185Z,76.55
2022-08-26T04:59:58.221Z,76.27
2022-08-26T05:02:26.420Z,76.73
2022-08-26T05:04:55.179Z,76.18
2022-08-26T05:07:23.651Z,75.76
2022-08-26T05:09:54.010Z,75.71
2022-08-26T05:12:23.598Z,76.08
2022-08-26T05:14:52.837Z,75.96
2022-08-26T05:17:21.382Z,75.77
2022-08-26T05:19:51.006Z,75.78
2022-08-26T05:22:20.620Z,75.87
2022-08-26T05:24:49.931Z,75.81
2022-08-26T05:27:18.108Z,75.88
2022-08-26T05:29:46.314Z,75.78
2022-08-26T05:32:59.926Z,75.55
2022-08-26T05:35:34.607Z,75.86
2022-08-26T05:38:05.906Z,75.70
2022-08-26T05:40:44.687Z,75.92
2022-08-26T05:43:13.689Z,75.61
2022-08-26T05:45:46.072Z,75.17
2022-08-26T05:48:17.096Z,75.07
2022-08-26T05:50:51.263Z,74.76
2022-08-26T05:53:21.472Z,74.00
2022-08-26T05:55:51.936Z,73.87
2022-08-26T05:58:21.814Z,73.78
2022-08-26T06:01:02.260Z,73.58
2022-08-26T06:03:32.445Z,73.52
2022-08-26T06:06:05.103Z,73.12
2022-08-26T06:08:36.351Z,72.97
2022-08-26T06:11:18.644Z,72.86
2022-08-26T06:14:03.074Z,72.92
2022-08-26T06:16:44.446Z,72.77
2022-08-26T06:19:19.379Z,72.19
2022-08-26T06:21:55.082Z,72.28
2022-08-26T06:24:48.167Z,72.36
2022-08-26T06:27:30.597Z,71.65
2022-08-26T06:30:10.035Z,71.45
2022-08-26T06:32:45.828Z,71.23
2022-08-26T06:35:21.921Z,70.60
2022-08-26T06:37:57.556Z,70.40
2022-08-26T06:40:33.389Z,69.66
2022-08-26T06:43:09.371Z,69.74
2022-08-26T06:45:47.833Z,69.35
2022-08-26T06:48:24.965Z,68.90
2022-08-26T06:51:24.189Z,68.90
2022-08-26T06:54:00.206Z,68.30
2022-08-26T06:56:41.998Z,68.31
2022-08-26T06:59:18.497Z,68.11
2022-08-26T07:01:54.982Z,67.77
2022-08-26T07:04:30.121Z,68.00
2022-08-26T07:07:06.649Z,67.54
2022-08-26T07:09:43.524Z,67.19
2022-08-26T07:12:17.730Z,67.28
2022-08-26T07:14:52.047Z,67.06
2022-08-26T07:17:21.990Z,66.57
2022-08-26T07:19:58.610Z,66.33
2022-08-26T07:22:27.424Z,65.96
2022-08-26T07:24:55.301Z,65.53
2022-08-26T07:27:30.862Z,64.85
2022-08-26T07:29:58.893Z,64.80
2022-08-26T07:32:27.217Z,65.08
2022-08-26T07:34:55.159Z,65.27
2022-08-26T07:37:23.313Z,64.65
2022-08-26T07:39:51.588Z,64.64
2022-08-26T07:42:20.898Z,64.06
2022-08-26T07:44:49.560Z,63.89
2022-08-26T07:47:25.287Z,63.51
2022-08-26T07:49:57.699Z,63.31
2022-08-26T07:52:37.658Z,62.96
2022-08-26T07:55:15.231Z,62.89
2022-08-26T07:57:49.209Z,62.97
2022-08-26T08:00:17.426Z,62.89
2022-08-26T08:02:45.545Z,62.81
2022-08-26T08:05:17.768Z,62.19
2022-08-26T08:07:46.652Z,61.88
2022-08-26T08:10:18.787Z,61.87
2022-08-26T08:12:50.396Z,61.90
2022-08-26T08:15:21.247Z,61.73
2022-08-26T08:17:50.558Z,61.27
2022-08-26T08:20:22.478Z,60.57
2022-08-26T08:22:52.631Z,60.70
2022-08-26T08:25:22.588Z,60.41
2022-08-26T08:27:56.022Z,60.18
2022-08-26T08:30:35.015Z,59.43
2022-08-26T08:33:03.486Z,59.97
2022-08-26T08:35:40.411Z,59.05
2022-08-26T08:38:17.423Z,58.77
2022-08-26T08:40:46.119Z,58.71
2022-08-26T08:43:37.542Z,58.22
2022-08-26T08:46:17.640Z,57.70
2022-08-26T08:48:51.503Z,56.91
2022-08-26T08:51:27.625Z,56.83
2022-08-26T08:53:56.938Z,56.72
2022-08-26T08:56:41.763Z,56.57
2022-08-26T08:59:20.585Z,56.33
2022-08-26T09:01:54.130Z,56.47
2022-08-26T09:05:03.067Z,56.12
2022-08-26T09:07:47.080Z,55.56
2022-08-26T09:10:33.955Z,53.82
2022-08-26T09:13:25.308Z,53.16
2022-08-26T09:15:55.199Z,53.50
2022-08-26T09:18:35.545Z,53.23
2022-08-26T09:21:09.484Z,53.39
2022-08-26T09:23:42.787Z,52.83
2022-08-26T09:26:30.663Z,52.08
2022-08-26T09:29:03.397Z,51.35
2022-08-26T09:31:35.937Z,51.62
2022-08-26T09:34:23.160Z,49.08
2022-08-26T09:36:56.637Z,49.77
2022-08-26T09:39:31.583Z,48.22
2022-08-26T09:42:10.373Z,48.03
2022-08-26T09:45:06.610Z,46.35
2022-08-26T09:47:38.414Z,46.61
2022-08-26T09:50:34.358Z,45.50
2022-08-26T09:53:09.942Z,45.03
2022-08-26T09:55:43.908Z,44.65
2022-08-26T09:58:32.573Z,44.28
2022-08-26T10:01:04.400Z,44.58
2022-08-26T10:03:36.180Z,44.48
2022-08-26T10:06:07.659Z,44.25
2022-08-26T10:08:42.448Z,43.43
2022-08-26T10:11:35.486Z,43.69
2022-08-26T10:14:11.196Z,43.28
2022-08-26T10:16:58.399Z,43.20
2022-08-26T10:19:56.135Z,42.96
2022-08-26T10:22:52.691Z,43.57
2022-08-26T10:25:27.703Z,43.34
2022-08-26T10:28:51.171Z,42.10
2022-08-26T10:31:40.164Z,40.93
2022-08-26T10:34:12.354Z,40.85
2022-08-26T10:37:13.922Z,40.32
2022-08-26T10:40:07.752Z,40.61
2022-08-26T10:42:54.547Z,40.16
2022-08-26T10:45:29.801Z,39.14
2022-08-26T10:48:07.545Z,38.60
2022-08-26T10:50:41.772Z,38.77
2022-08-26T10:53:39.878Z,38.98
2022-08-26T10:56:44.812Z,37.87
2022-08-26T11:00:31.413Z,38.05
2022-08-26T11:03:39.313Z,38.28
2022-08-26T11:06:19.991Z,38.69
2022-08-26T11:08:48.017Z,38.33
2022-08-26T11:11:40.891Z,38.14
2022-08-26T11:14:11.530Z,36.14
2022-08-26T11:16:45.318Z,36.43
2022-08-26T11:19:56.807Z,36.61
2022-08-26T11:22:33.382Z,37.40
2022-08-26T11:25:09.450Z,37.30
2022-08-26T11:27:40.281Z,36.48
2022-08-26T11:30:10.822Z,35.81
2022-08-26T11:32:41.294Z,36.28
2022-08-26T11:35:19.431Z,36.15
2022-08-26T11:38:04.407Z,35.98
2022-08-26T11:40:38.564Z,36.01
2022-08-26T11:43:13.007Z,35.51
2022-08-26T11:45:47.597Z,35.28
2022-08-26T11:48:31.215Z,35.05
2022-08-26T11:51:12.491Z,35.07
2022-08-26T11:53:47.178Z,35.01
2022-08-26T11:56:28.823Z,34.78
2022-08-26T11:59:03.558Z,35.25
2022-08-26T12:01:35.772Z,35.47
2022-08-26T12:04:10.716Z,35.25
2022-08-26T12:06:45.898Z,34.82
2022-08-26T12:09:30.533Z,34.97
2022-08-26T12:12:22.088Z,34.75
2022-08-26T12:15:06.369Z,34.62
2022-08-26T12:17:34.532Z,34.93
2022-08-26T12:20:17.075Z,34.89
2022-08-26T12:22:48.096Z,34.71
2022-08-26T12:25:24.036Z,34.78
2022-08-26T12:27:54.068Z,33.90
2022-08-26T12:30:26.266Z,33.90
2022-08-26T12:33:22.186Z,34.36
2022-08-26T12:35:56.325Z,33.64
2022-08-26T12:38:27.464Z,33.59
2022-08-26T12:40:57.170Z,33.73
2022-08-26T12:43:44.704Z,33.93
2022-08-26T12:46:30.044Z,33.94
2022-08-26T12:49:01.572Z,33.33
2022-08-26T12:51:33.043Z,33.18
2022-08-26T12:54:06.812Z,33.26
2022-08-26T12:56:41.407Z,33.22
2022-08-26T12:59:24.434Z,33.22
2022-08-26T13:01:54.216Z,32.48
2022-08-26T13:04:31.318Z,32.39
2022-08-26T13:07:18.356Z,32.98
2022-08-26T13:09:46.372Z,32.49
2022-08-26T13:12:28.272Z,31.65
2022-08-26T13:14:58.939Z,31.61
2022-08-26T13:17:29.289Z,31.61
2022-08-26T13:20:03.230Z,31.31
2022-08-26T13:22:32.906Z,30.64
2022-08-26T13:25:01.116Z,30.14
2022-08-26T13:27:29.250Z,30.05
2022-08-26T13:29:58.007Z,29.88
2022-08-26T13:32:27.306Z,29.60
2022-08-26T13:34:59.736Z,29.30
2022-08-26T13:37:31.504Z,29.15
2022-08-26T13:40:07.690Z,28.75
2022-08-26T13:42:35.837Z,28.99
2022-08-26T13:45:04.845Z,28.93
2022-08-26T13:47:32.900Z,28.86
2022-08-26T13:50:01.033Z,28.57
2022-08-26T13:52:30.565Z,28.26
2022-08-26T13:55:00.679Z,27.98
2022-08-26T13:57:30.341Z,27.57
2022-08-26T14:00:01.917Z,27.77
2022-08-26T14:02:37.916Z,27.75
2022-08-26T14:05:06.513Z,27.78
2022-08-26T14:07:34.601Z,27.50
2022-08-26T14:10:03.140Z,27.05
2022-08-26T14:12:31.333Z,27.08
2022-08-26T14:15:00.585Z,27.02
2022-08-26T14:17:28.733Z,27.10
2022-08-26T14:19:59.015Z,27.05
2022-08-26T14:22:27.965Z,27.35
2022-08-26T14:24:56.655Z,26.56
2022-08-26T14:27:25.652Z,26.36
2022-08-26T14:29:54.493Z,26.09
2022-08-26T14:32:27.411Z,26.14
2022-08-26T14:34:56.196Z,25.86
2022-08-26T14:37:24.419Z,25.40
2022-08-26T14:39:52.677Z,25.44
2022-08-26T14:42:26.593Z,25.48
2022-08-26T14:45:02.914Z,25.30
2022-08-26T14:47:31.365Z,25.33
2022-08-26T14:49:59.359Z,25.42
2022-08-26T14:52:27.929Z,24.92
2022-08-26T14:54:55.980Z,25.00
2022-08-26T14:57:24.209Z,25.37
2022-08-26T14:59:52.362Z,25.44
2022-08-26T15:02:32.626Z,25.19
2022-08-26T15:05:04.281Z,25.33
2022-08-26T15:07:32.336Z,24.76
2022-08-26T15:10:00.800Z,24.58
2022-08-26T15:12:28.975Z,24.91
2022-08-26T15:14:57.273Z,24.92
2022-08-26T15:17:26.467Z,25.02
2022-08-26T15:19:54.565Z,25.20
2022-08-26T15:22:23.052Z,25.25
2022-08-26T15:24:51.758Z,25.17
2022-08-26T15:27:21.871Z,24.88
2022-08-26T15:29:50.621Z,24.85
2022-08-26T15:32:18.829Z,24.87
2022-08-26T15:34:47.420Z,24.98
2022-08-26T15:37:17.075Z,25.18
2022-08-26T15:39:45.232Z,25.00
2022-08-26T15:42:13.382Z,25.25
2022-08-26T15:44:45.647Z,25.08
2022-08-26T15:47:14.680Z,25.26
2022-08-26T15:49:44.868Z,25.39
2022-08-26T15:52:15.712Z,25.56
2022-08-26T15:54:43.835Z,25.78
2022-08-26T15:57:14.361Z,25.99
2022-08-26T15:59:43.453Z,25.90
2022-08-26T16:02:11.686Z,26.03
2022-08-26T16:04:39.852Z,26.18
2022-08-26T16:07:07.929Z,26.01
2022-08-26T16:09:36.180Z,26.30
2022-08-26T16:12:04.377Z,26.40
2022-08-26T16:14:32.590Z,26.47
2022-08-26T16:17:00.804Z,26.85
2022-08-26T16:19:29.419Z,27.00
2022-08-26T16:21:58.014Z,27.24
2022-08-26T16:24:30.220Z,27.27
2022-08-26T16:26:58.827Z,27.57
2022-08-26T16:29:27.879Z,27.36
2022-08-26T16:31:55.902Z,27.32
2022-08-26T16:34:24.318Z,27.76
2022-08-26T16:36:52.831Z,27.99
2022-08-26T16:39:20.993Z,28.01
2022-08-26T16:41:48.952Z,28.13
2022-08-26T16:44:17.065Z,28.51
2022-08-26T16:46:45.922Z,29.00
2022-08-26T16:49:14.441Z,29.61
2022-08-26T16:51:42.414Z,29.87
2022-08-26T16:54:10.680Z,30.24
2022-08-26T16:56:39.303Z,30.85
2022-08-26T16:59:11.778Z,31.30
2022-08-26T17:01:40.036Z,31.71
2022-08-26T17:04:08.057Z,32.30
2022-08-26T17:06:36.389Z,33.09
2022-08-26T17:09:05.272Z,33.29
2022-08-26T17:11:34.327Z,33.61
2022-08-26T17:14:03.091Z,34.17
2022-08-26T17:16:32.052Z,34.38
2022-08-26T17:19:00.452Z,34.89
2022-08-26T17:21:29.222Z,35.18
2022-08-26T17:23:57.250Z,35.55
2022-08-26T17:26:26.095Z,35.90
2022-08-26T17:28:54.499Z,36.27
2022-08-26T17:31:23.518Z,36.59
2022-08-26T17:33:53.508Z,36.53
2022-08-26T17:36:27.923Z,36.40
2022-08-26T17:38:58.432Z,36.81
2022-08-26T17:41:26.995Z,37.16
2022-08-26T17:43:55.281Z,37.40
2022-08-26T17:46:24.186Z,37.43
2022-08-26T17:48:52.290Z,37.77
2022-08-26T17:51:22.128Z,38.04
2022-08-26T17:53:52.027Z,37.95
2022-08-26T17:56:27.247Z,38.00
2022-08-26T17:59:02.525Z,38.24
2022-08-26T18:01:32.762Z,38.40
2022-08-26T18:04:01.149Z,38.57
2022-08-26T18:06:30.781Z,38.45
2022-08-26T18:09:00.321Z,38.61
2022-08-26T18:11:29.311Z,38.71
2022-08-26T18:13:57.323Z,38.81
2022-08-26T18:16:25.377Z,38.85
2022-08-26T18:18:53.731Z,39.00
2022-08-26T18:21:24.720Z,39.19
2022-08-26T18:23:54.218Z,39.26
2022-08-26T18:26:28.582Z,39.30
2022-08-26T18:28:56.965Z,39.46
2022-08-26T18:31:25.996Z,39.58
2022-08-26T18:33:54.535Z,39.70
2022-08-26T18:36:40.860Z,39.85
2022-08-26T18:39:09.861Z,40.09
2022-08-26T18:41:44.142Z,40.19
2022-08-26T18:44:14.136Z,40.43
2022-08-26T18:46:44.200Z,40.59
2022-08-26T18:49:16.458Z,40.71
2022-08-26T18:51:45.108Z,40.87
2022-08-26T18:54:13.475Z,40.99
2022-08-26T18:56:42.463Z,41.08
2022-08-26T18:59:11.842Z,41.35
2022-08-26T19:01:41.087Z,41.45
2022-08-26T19:04:14.114Z,41.58
2022-08-26T19:06:47.161Z,41.86
2022-08-26T19:09:17.843Z,42.00
2022-08-26T19:11:47.201Z,42.23
2022-08-26T19:14:17.777Z,42.17
2022-08-26T19:16:47.820Z,42.34
2022-08-26T19:19:16.481Z,42.40
2022-08-26T19:21:45.662Z,42.55
2022-08-26T19:24:17.692Z,42.56
2022-08-26T19:26:48.421Z,42.63
2022-08-26T19:31:46.424Z,42.79
2022-08-26T19:34:18.327Z,42.87
2022-08-26T19:36:49.476Z,42.74
2022-08-26T19:39:17.504Z,42.84
2022-08-26T19:41:45.632Z,42.93
2022-08-26T19:44:38.304Z,43.09
2022-08-26T19:47:09.610Z,42.91
2022-08-26T19:49:39.278Z,43.17
2022-08-26T19:52:07.529Z,43.18
2022-08-26T19:54:36.450Z,43.24
2022-08-26T19:57:05.839Z,43.33
2022-08-26T19:59:38.748Z,43.43
2022-08-26T20:02:11.373Z,43.37
2022-08-26T20:04:42.044Z,43.60
2022-08-26T20:07:18.577Z,43.68
2022-08-26T20:09:51.048Z,43.61
2022-08-26T20:12:19.597Z,43.89
2022-08-26T20:14:47.993Z,43.87
2022-08-26T20:17:18.787Z,44.21
2022-08-26T20:20:07.199Z,44.11
2022-08-26T20:22:56.220Z,44.18
2022-08-26T20:25:26.331Z,44.42
2022-08-26T20:27:54.697Z,44.61
2022-08-26T20:30:26.386Z,44.42
2022-08-26T20:33:01.053Z,44.26
2022-08-26T20:35:29.617Z,44.43
2022-08-26T20:37:58.004Z,44.57
2022-08-26T20:40:26.546Z,44.78
2022-08-26T20:42:55.251Z,44.70
2022-08-26T20:45:24.077Z,44.84
2022-08-26T20:47:53.000Z,44.77
2022-08-26T20:50:21.347Z,44.86
2022-08-26T20:52:49.883Z,44.82
2022-08-26T20:55:19.088Z,44.85
2022-08-26T20:57:49.992Z,44.77
2022-08-26T21:00:26.494Z,45.03
2022-08-26T21:02:56.941Z,44.94
2022-08-26T21:05:25.191Z,45.16
2022-08-26T21:07:53.702Z,45.25
2022-08-26T21:10:22.611Z,45.07
2022-08-26T21:12:51.836Z,45.29
2022-08-26T21:15:19.949Z,45.19
2022-08-26T21:17:48.679Z,45.38
2022-08-26T21:20:18.932Z,45.44
2022-08-26T21:22:47.426Z,45.57
2022-08-26T21:25:15.752Z,45.62
2022-08-26T21:27:43.957Z,45.75
2022-08-26T21:30:15.053Z,45.78
2022-08-26T21:32:43.595Z,45.95
2022-08-26T21:35:11.670Z,45.83
2022-08-26T21:37:39.938Z,46.12
2022-08-26T21:40:10.544Z,46.19
2022-08-26T21:42:38.903Z,46.40
2022-08-26T21:45:07.589Z,46.32
2022-08-26T21:47:36.697Z,46.51
2022-08-26T21:50:05.743Z,46.57
2022-08-26T21:52:33.774Z,46.50
2022-08-26T21:55:03.536Z,46.62
2022-08-26T21:57:37.157Z,47.05
2022-08-26T22:00:09.296Z,46.85
2022-08-26T22:02:37.591Z,46.96
2022-08-26T22:05:05.982Z,46.94
2022-08-26T22:07:34.369Z,47.29
2022-08-26T22:10:02.443Z,47.14
2022-08-26T22:12:30.451Z,47.18
2022-08-26T22:14:58.879Z,47.18
2022-08-26T22:17:29.419Z,47.30
2022-08-26T22:19:57.464Z,47.41
2022-08-26T22:22:31.885Z,47.63
2022-08-26T22:25:00.379Z,47.77
2022-08-26T22:27:29.712Z,47.87
2022-08-26T22:29:57.937Z,47.92
2022-08-26T22:32:25.828Z,48.07
2022-08-26T22:34:53.890Z,48.28
2022-08-26T22:37:21.884Z,48.61
2022-08-26T22:39:51.942Z,48.86
2022-08-26T22:42:20.026Z,49.03
2022-08-26T22:44:51.370Z,49.14
2022-08-26T22:47:19.376Z,49.34
2022-08-26T22:49:47.969Z,49.43
2022-08-26T22:52:16.006Z,49.75
2022-08-26T22:54:43.998Z,50.04
2022-08-26T22:57:12.067Z,49.99
2022-08-26T22:59:40.725Z,50.10
2022-08-26T23:02:16.153Z,50.30
2022-08-26T23:04:44.075Z,50.32
2022-08-26T23:07:14.486Z,50.34
2022-08-26T23:09:42.738Z,50.35
2022-08-26T23:12:13.273Z,50.34
2022-08-26T23:14:41.763Z,50.34
2022-08-26T23:17:15.887Z,50.51
2022-08-26T23:19:45.199Z,50.51
2022-08-26T23:22:13.288Z,50.63
2022-08-26T23:24:41.629Z,50.67
2022-08-26T23:27:10.177Z,50.80
2022-08-26T23:29:39.912Z,51.12
2022-08-26T23:32:08.072Z,51.35
2022-08-26T23:34:54.757Z,51.46
2022-08-26T23:37:32.454Z,51.81
2022-08-26T23:40:05.278Z,51.65
2022-08-26T23:42:34.717Z,51.82
2022-08-26T23:45:08.139Z,51.99
2022-08-26T23:47:36.776Z,51.84
2022-08-26T23:50:05.951Z,51.83
2022-08-26T23:52:52.652Z,51.73
2022-08-26T23:55:23.781Z,51.67
2022-08-26T23:57:51.855Z,51.57
